createdAt,value
2023-01-09T00:01:27.815Z,10.77
2023-01-09T00:03:54.823Z,11.10
2023-01-09T00:06:21.413Z,10.88
2023-01-09T00:08:48.463Z,10.85
2023-01-09T00:11:15.027Z,10.85
2023-01-09T00:13:41.734Z,10.28
2023-01-09T00:16:08.898Z,10.37
2023-01-09T00:18:36.253Z,10.23
2023-01-09T00:21:05.203Z,9.73
2023-01-09T00:23:31.762Z,9.86
2023-01-09T00:26:11.936Z,10.00
2023-01-09T00:28:38.897Z,9.48
2023-01-09T00:31:06.896Z,9.63
2023-01-09T00:33:44.833Z,9.43
2023-01-09T00:36:12.223Z,9.45
2023-01-09T00:38:39.417Z,9.48
2023-01-09T00:41:08.103Z,9.50
2023-01-09T00:43:40.184Z,9.02
2023-01-09T00:46:07.873Z,9.14
2023-01-09T00:48:35.549Z,9.36
2023-01-09T00:51:02.022Z,9.37
2023-01-09T00:53:31.761Z,9.24
2023-01-09T00:56:00.282Z,8.89
2023-01-09T00:58:26.827Z,8.98
2023-01-09T01:00:53.475Z,8.83
2023-01-09T01:03:20.040Z,9.39
2023-01-09T01:06:05.271Z,9.55
2023-01-09T01:08:31.750Z,9.68
2023-01-09T01:10:58.261Z,9.52
2023-01-09T01:13:24.706Z,9.38
2023-01-09T01:15:51.202Z,9.31
2023-01-09T01:18:18.191Z,9.37
2023-01-09T01:20:44.995Z,9.62
2023-01-09T01:23:11.533Z,9.85
2023-01-09T01:25:42.501Z,9.48
2023-01-09T01:28:10.320Z,9.62
2023-01-09T01:30:41.262Z,9.42
2023-01-09T01:33:08.752Z,9.86
2023-01-09T01:35:35.426Z,9.27
2023-01-09T01:38:02.254Z,9.46
2023-01-09T01:40:29.491Z,9.06
2023-01-09T01:42:56.719Z,9.38
2023-01-09T01:45:28.341Z,9.07
2023-01-09T01:48:06.134Z,9.04
2023-01-09T01:50:35.743Z,9.22
2023-01-09T01:53:05.067Z,9.67
2023-01-09T01:55:34.230Z,9.54
2023-01-09T01:58:02.817Z,8.94
2023-01-09T02:00:35.051Z,9.14
2023-01-09T02:03:02.148Z,9.56
2023-01-09T02:05:28.940Z,9.78
2023-01-09T02:07:55.651Z,9.52
2023-01-09T02:10:23.635Z,9.48
2023-01-09T02:12:50.723Z,8.92
2023-01-09T02:15:18.394Z,9.26
2023-01-09T02:17:56.978Z,9.18
2023-01-09T02:20:29.761Z,9.31
2023-01-09T02:23:24.189Z,9.57
2023-01-09T02:26:08.917Z,9.71
2023-01-09T02:28:38.409Z,9.48
2023-01-09T02:31:52.247Z,9.13
2023-01-09T02:34:56.487Z,9.05
2023-01-09T02:37:29.190Z,8.76
2023-01-09T02:40:28.179Z,9.09
2023-01-09T02:42:57.494Z,9.19
2023-01-09T02:45:24.024Z,9.18
2023-01-09T02:47:51.350Z,9.01
2023-01-09T02:51:02.591Z,8.98
2023-01-09T02:53:55.863Z,9.13
2023-01-09T02:56:39.344Z,8.80
2023-01-09T02:59:20.878Z,8.91
2023-01-09T03:02:08.597Z,9.16
2023-01-09T03:04:42.660Z,8.80
2023-01-09T03:07:21.959Z,9.10
2023-01-09T03:09:50.674Z,8.83
2023-01-09T03:12:21.053Z,8.94
2023-01-09T03:14:56.519Z,8.81
2023-01-09T03:17:27.533Z,9.13
2023-01-09T03:19:54.845Z,8.69
2023-01-09T03:22:21.349Z,9.10
2023-01-09T03:24:48.030Z,8.70
2023-01-09T03:27:15.107Z,8.99
2023-01-09T03:29:41.779Z,8.76
2023-01-09T03:32:08.649Z,8.84
2023-01-09T03:34:35.163Z,8.80
2023-01-09T03:37:01.853Z,8.72
2023-01-09T03:39:28.460Z,8.94
2023-01-09T03:41:54.951Z,8.50
2023-01-09T03:44:22.003Z,8.51
2023-01-09T03:46:50.174Z,8.59
2023-01-09T03:49:17.713Z,8.56
2023-01-09T03:51:44.230Z,8.62
2023-01-09T03:54:10.782Z,8.73
2023-01-09T03:56:37.316Z,8.82
2023-01-09T03:59:03.834Z,8.79
2023-01-09T04:01:30.433Z,8.88
2023-01-09T04:03:57.127Z,8.90
2023-01-09T04:06:23.821Z,9.05
2023-01-09T04:08:50.625Z,8.80
2023-01-09T04:11:18.126Z,9.24
2023-01-09T04:13:45.177Z,8.95
2023-01-09T04:16:11.881Z,9.24
2023-01-09T04:18:38.505Z,9.30
2023-01-09T04:21:05.062Z,9.11
2023-01-09T04:23:31.546Z,8.91
2023-01-09T04:25:58.325Z,9.24
2023-01-09T04:28:24.833Z,9.30
2023-01-09T04:30:51.345Z,8.78
2023-01-09T04:33:17.917Z,9.44
2023-01-09T04:35:44.424Z,9.25
2023-01-09T04:38:10.925Z,9.54
2023-01-09T04:40:37.496Z,9.10
2023-01-09T04:43:04.019Z,9.64
2023-01-09T04:45:30.527Z,9.06
2023-01-09T04:47:57.431Z,8.81
2023-01-09T04:50:23.934Z,9.16
2023-01-09T04:52:50.438Z,9.52
2023-01-09T04:55:17.219Z,9.14
2023-01-09T04:57:43.678Z,9.60
2023-01-09T05:00:12.155Z,9.27
2023-01-09T05:02:39.420Z,8.98
2023-01-09T05:05:11.270Z,9.27
2023-01-09T05:07:38.203Z,8.87
2023-01-09T05:10:05.358Z,8.67
2023-01-09T05:12:31.998Z,9.30
2023-01-09T05:14:58.695Z,9.14
2023-01-09T05:17:25.229Z,9.27
2023-01-09T05:19:51.873Z,9.09
2023-01-09T05:22:18.717Z,9.04
2023-01-09T05:24:45.251Z,9.41
2023-01-09T05:27:11.783Z,8.66
2023-01-09T05:29:38.352Z,9.04
2023-01-09T05:32:05.193Z,8.87
2023-01-09T05:34:31.739Z,8.97
2023-01-09T05:36:58.239Z,8.73
2023-01-09T05:39:24.729Z,8.93
2023-01-09T05:41:51.223Z,8.77
2023-01-09T05:44:17.787Z,8.69
2023-01-09T05:46:44.305Z,9.03
2023-01-09T05:49:10.881Z,8.48
2023-01-09T05:51:37.509Z,8.92
2023-01-09T05:54:05.405Z,8.73
2023-01-09T05:56:31.943Z,8.90
2023-01-09T05:58:58.473Z,8.59
2023-01-09T06:01:25.265Z,8.27
2023-01-09T06:03:51.882Z,8.74
2023-01-09T06:06:18.451Z,8.73
2023-01-09T06:08:44.967Z,8.62
2023-01-09T06:11:11.455Z,8.77
2023-01-09T06:13:38.287Z,9.26
2023-01-09T06:16:05.356Z,9.34
2023-01-09T06:18:31.897Z,9.04
2023-01-09T06:20:58.384Z,9.35
2023-01-09T06:23:24.941Z,8.58
2023-01-09T06:25:51.522Z,8.59
2023-01-09T06:28:18.010Z,8.84
2023-01-09T06:30:44.676Z,9.21
2023-01-09T06:33:11.722Z,9.32
2023-01-09T06:35:38.217Z,9.03
2023-01-09T06:38:05.205Z,8.92
2023-01-09T06:40:31.713Z,8.79
2023-01-09T06:42:58.325Z,8.71
2023-01-09T06:45:24.842Z,9.54
2023-01-09T06:47:51.781Z,9.53
2023-01-09T06:50:18.379Z,9.58
2023-01-09T06:52:44.972Z,8.87
2023-01-09T06:55:11.803Z,9.49
2023-01-09T06:57:38.356Z,9.10
2023-01-09T07:00:05.893Z,9.18
2023-01-09T07:02:32.399Z,9.33
2023-01-09T07:04:58.951Z,9.21
2023-01-09T07:07:25.434Z,9.03
2023-01-09T07:09:51.953Z,9.07
2023-01-09T07:12:18.863Z,9.19
2023-01-09T07:14:45.494Z,9.05
2023-01-09T07:17:13.376Z,8.99
2023-01-09T07:19:39.940Z,8.74
2023-01-09T07:22:06.654Z,8.74
2023-01-09T07:24:33.220Z,8.79
2023-01-09T07:26:59.756Z,8.68
2023-01-09T07:29:26.207Z,8.20
2023-01-09T07:31:52.705Z,8.75
2023-01-09T07:34:19.579Z,8.69
2023-01-09T07:36:46.714Z,8.53
2023-01-09T07:39:13.678Z,8.40
2023-01-09T07:41:40.280Z,8.23
2023-01-09T07:44:08.995Z,8.24
2023-01-09T07:46:36.844Z,8.08
2023-01-09T07:49:03.519Z,8.34
2023-01-09T07:51:30.054Z,8.50
2023-01-09T07:53:56.534Z,8.32
2023-01-09T07:56:23.103Z,8.67
2023-01-09T07:58:49.587Z,8.63
2023-01-09T08:01:16.772Z,8.69
2023-01-09T08:03:43.332Z,8.58
2023-01-09T08:06:10.299Z,8.71
2023-01-09T08:08:36.813Z,8.60
2023-01-09T08:11:03.561Z,9.22
2023-01-09T08:13:30.236Z,8.65
2023-01-09T08:15:56.917Z,9.07
2023-01-09T08:18:23.532Z,8.91
2023-01-09T08:20:50.165Z,8.62
2023-01-09T08:23:16.699Z,8.57
2023-01-09T08:25:43.246Z,8.72
2023-01-09T08:28:09.865Z,8.52
2023-01-09T08:30:36.736Z,8.43
2023-01-09T08:33:03.787Z,8.63
2023-01-09T08:35:30.343Z,8.50
2023-01-09T08:37:56.908Z,8.56
2023-01-09T08:40:23.426Z,8.75
2023-01-09T08:43:08.669Z,8.85
2023-01-09T08:45:54.015Z,8.69
2023-01-09T08:48:20.594Z,8.38
2023-01-09T08:50:47.245Z,9.04
2023-01-09T08:53:13.799Z,9.15
2023-01-09T08:55:42.530Z,9.72
2023-01-09T08:58:09.004Z,9.70
2023-01-09T09:00:35.821Z,9.77
2023-01-09T09:03:02.501Z,10.12
2023-01-09T09:05:30.800Z,9.09
2023-01-09T09:07:57.923Z,9.66
2023-01-09T09:10:26.732Z,10.02
2023-01-09T09:12:54.892Z,9.99
2023-01-09T09:15:25.224Z,10.34
2023-01-09T09:18:00.682Z,9.61
2023-01-09T09:20:38.721Z,10.39
2023-01-09T09:23:06.521Z,9.79
2023-01-09T09:25:33.007Z,9.55
2023-01-09T09:28:01.248Z,9.17
2023-01-09T09:30:28.101Z,9.11
2023-01-09T09:32:54.692Z,9.51
2023-01-09T09:35:22.498Z,9.66
2023-01-09T09:38:04.811Z,9.96
2023-01-09T09:40:35.253Z,9.87
2023-01-09T09:43:30.068Z,9.96
2023-01-09T09:46:03.017Z,9.90
2023-01-09T09:48:48.787Z,9.79
2023-01-09T09:51:18.843Z,9.51
2023-01-09T09:53:54.839Z,9.58
2023-01-09T09:56:23.352Z,9.33
2023-01-09T09:58:53.532Z,9.75
2023-01-09T10:01:24.134Z,9.69
2023-01-09T10:04:00.850Z,10.03
2023-01-09T10:06:34.035Z,9.73
2023-01-09T10:09:25.632Z,9.73
2023-01-09T10:11:55.254Z,9.41
2023-01-09T10:14:24.531Z,10.00
2023-01-09T10:17:00.222Z,9.28
2023-01-09T10:19:36.043Z,9.74
2023-01-09T10:22:05.592Z,9.67
2023-01-09T10:24:47.382Z,9.21
2023-01-09T10:27:21.755Z,9.07
2023-01-09T10:30:03.474Z,8.99
2023-01-09T10:32:45.732Z,9.20
2023-01-09T10:35:23.448Z,9.00
2023-01-09T10:37:53.300Z,9.46
2023-01-09T10:40:20.023Z,8.88
2023-01-09T10:42:53.127Z,9.22
2023-01-09T10:45:25.973Z,9.68
2023-01-09T10:47:58.177Z,9.28
2023-01-09T10:50:28.509Z,9.38
2023-01-09T10:52:56.453Z,9.64
2023-01-09T10:55:45.060Z,10.16
2023-01-09T10:58:13.851Z,9.94
2023-01-09T11:00:40.788Z,9.94
2023-01-09T11:03:12.492Z,9.21
2023-01-09T11:05:39.006Z,9.24
2023-01-09T11:08:08.628Z,9.55
2023-01-09T11:10:53.052Z,9.72
2023-01-09T11:13:34.529Z,10.44
2023-01-09T11:16:06.996Z,10.22
2023-01-09T11:18:35.378Z,11.06
2023-01-09T11:21:34.101Z,12.52
2023-01-09T11:24:32.904Z,12.50
2023-01-09T11:27:23.512Z,11.26
2023-01-09T11:30:10.731Z,11.05
2023-01-09T11:32:37.200Z,11.12
2023-01-09T11:35:14.074Z,10.61
2023-01-09T11:37:40.756Z,10.10
2023-01-09T11:40:17.080Z,10.71
2023-01-09T11:43:01.867Z,10.71
2023-01-09T11:45:31.740Z,11.02
2023-01-09T11:47:58.802Z,11.04
2023-01-09T11:50:27.416Z,11.32
2023-01-09T11:53:13.121Z,15.41
2023-01-09T11:55:42.833Z,19.21
2023-01-09T11:58:18.067Z,18.89
2023-01-09T12:01:03.555Z,15.18
2023-01-09T12:03:39.187Z,13.17
2023-01-09T12:06:14.878Z,14.10
2023-01-09T12:09:00.065Z,11.88
2023-01-09T12:11:58.310Z,11.02
2023-01-09T12:14:30.018Z,10.95
2023-01-09T12:17:33.907Z,10.53
2023-01-09T12:20:16.608Z,10.97
2023-01-09T12:23:12.985Z,10.65
2023-01-09T12:25:48.889Z,10.40
2023-01-09T12:28:40.512Z,10.45
2023-01-09T12:31:39.859Z,10.72
2023-01-09T12:34:40.451Z,10.47
2023-01-09T12:37:25.431Z,10.07
2023-01-09T12:40:07.100Z,9.79
2023-01-09T12:42:45.879Z,9.55
2023-01-09T12:45:55.318Z,9.51
2023-01-09T12:48:49.304Z,9.28
2023-01-09T12:51:47.865Z,9.20
2023-01-09T12:54:25.427Z,9.19
2023-01-09T12:56:58.304Z,9.30
2023-01-09T12:59:30.564Z,9.55
2023-01-09T13:02:44.921Z,9.15
2023-01-09T13:05:17.092Z,9.15
2023-01-09T13:07:56.601Z,9.04
2023-01-09T13:10:48.070Z,9.28
2023-01-09T13:13:25.665Z,9.31
2023-01-09T13:15:58.380Z,9.31
2023-01-09T13:18:40.925Z,9.21
2023-01-09T13:21:07.955Z,8.93
2023-01-09T13:23:46.408Z,9.28
2023-01-09T13:26:39.468Z,9.34
2023-01-09T13:29:16.265Z,8.87
2023-01-09T13:32:24.626Z,8.77
2023-01-09T13:34:53.923Z,8.57
2023-01-09T13:37:26.481Z,9.29
2023-01-09T13:39:59.357Z,9.39
2023-01-09T13:42:46.291Z,9.55
2023-01-09T13:45:18.605Z,9.46
2023-01-09T13:47:45.223Z,9.23
2023-01-09T13:50:11.773Z,9.61
2023-01-09T13:52:42.643Z,9.39
2023-01-09T13:55:12.151Z,9.04
2023-01-09T13:57:43.201Z,9.20
2023-01-09T14:00:12.893Z,8.66
2023-01-09T14:02:39.452Z,8.81
2023-01-09T14:05:12.209Z,8.78
2023-01-09T14:07:41.255Z,8.70
2023-01-09T14:10:19.924Z,9.31
2023-01-09T14:12:46.648Z,8.73
2023-01-09T14:15:44.953Z,9.43
2023-01-09T14:18:25.825Z,9.30
2023-01-09T14:20:55.418Z,9.30
2023-01-09T14:23:42.148Z,9.41
2023-01-09T14:26:18.011Z,9.39
2023-01-09T14:28:45.009Z,9.07
2023-01-09T14:31:27.518Z,8.79
2023-01-09T14:34:35.528Z,9.06
2023-01-09T14:37:02.615Z,8.75
2023-01-09T14:39:31.661Z,8.61
2023-01-09T14:42:06.498Z,9.39
2023-01-09T14:45:06.380Z,8.99
2023-01-09T14:47:57.864Z,9.06
2023-01-09T14:50:34.647Z,9.29
2023-01-09T14:53:05.835Z,9.02
2023-01-09T14:55:57.827Z,9.39
2023-01-09T14:58:27.205Z,9.44
2023-01-09T15:01:15.769Z,9.46
2023-01-09T15:03:44.850Z,9.51
2023-01-09T15:06:18.623Z,9.71
2023-01-09T15:08:46.384Z,9.17
2023-01-09T15:11:13.525Z,9.30
2023-01-09T15:13:46.611Z,9.37
2023-01-09T15:16:20.705Z,9.36
2023-01-09T15:18:54.570Z,9.43
2023-01-09T15:21:26.030Z,8.95
2023-01-09T15:23:53.207Z,9.38
2023-01-09T15:26:30.637Z,8.87
2023-01-09T15:29:04.560Z,8.76
2023-01-09T15:31:31.386Z,8.48
2023-01-09T15:33:57.870Z,8.60
2023-01-09T15:36:30.286Z,8.27
2023-01-09T15:38:56.787Z,8.72
2023-01-09T15:41:46.489Z,8.91
2023-01-09T15:44:19.840Z,8.85
2023-01-09T15:46:49.954Z,8.86
2023-01-09T15:49:17.345Z,8.65
2023-01-09T15:51:45.529Z,9.06
2023-01-09T15:54:17.600Z,9.18
2023-01-09T15:56:45.967Z,9.18
2023-01-09T15:59:30.907Z,8.84
2023-01-09T16:02:30.173Z,8.71
2023-01-09T16:04:56.706Z,8.66
2023-01-09T16:07:23.271Z,8.69
2023-01-09T16:09:52.753Z,8.96
2023-01-09T16:12:25.142Z,8.42
2023-01-09T16:14:57.417Z,8.65
2023-01-09T16:17:26.218Z,8.46
2023-01-09T16:19:57.947Z,8.27
2023-01-09T16:22:25.773Z,8.36
2023-01-09T16:24:55.718Z,8.64
2023-01-09T16:27:30.389Z,8.41
2023-01-09T16:30:01.921Z,8.23
2023-01-09T16:32:30.938Z,8.39
2023-01-09T16:35:05.488Z,8.68
2023-01-09T16:37:32.317Z,8.08
2023-01-09T16:40:04.912Z,8.51
2023-01-09T16:42:51.510Z,8.95
2023-01-09T16:45:17.986Z,8.79
2023-01-09T16:47:45.681Z,9.05
2023-01-09T16:50:13.389Z,8.70
2023-01-09T16:52:40.085Z,9.49
2023-01-09T16:55:06.823Z,9.75
2023-01-09T16:57:34.193Z,9.19
2023-01-09T17:00:01.377Z,8.95
2023-01-09T17:02:27.979Z,8.24
2023-01-09T17:04:59.140Z,8.55
2023-01-09T17:07:25.662Z,8.54
2023-01-09T17:09:53.280Z,8.89
2023-01-09T17:12:24.074Z,8.86
2023-01-09T17:14:50.635Z,8.24
2023-01-09T17:17:17.877Z,8.83
2023-01-09T17:19:46.604Z,8.32
2023-01-09T17:22:20.756Z,8.79
2023-01-09T17:25:08.648Z,9.01
2023-01-09T17:27:55.625Z,9.50
2023-01-09T17:30:22.119Z,9.65
2023-01-09T17:32:48.914Z,9.63
2023-01-09T17:35:16.230Z,9.22
2023-01-09T17:37:42.938Z,9.27
2023-01-09T17:40:18.322Z,8.98
2023-01-09T17:42:44.806Z,9.47
2023-01-09T17:45:11.652Z,9.17
2023-01-09T17:47:38.403Z,8.44
2023-01-09T17:50:05.899Z,8.23
2023-01-09T17:52:33.055Z,8.38
2023-01-09T17:55:05.219Z,8.46
2023-01-09T17:57:32.704Z,8.70
2023-01-09T17:59:59.199Z,8.16
2023-01-09T18:02:25.824Z,8.41
2023-01-09T18:04:52.520Z,8.53
2023-01-09T18:07:19.422Z,8.08
2023-01-09T18:09:45.995Z,8.50
2023-01-09T18:12:12.652Z,8.39
2023-01-09T18:14:40.655Z,8.18
2023-01-09T18:17:07.496Z,8.15
2023-01-09T18:19:34.140Z,8.05
2023-01-09T18:22:00.629Z,7.85
2023-01-09T18:24:27.248Z,8.14
2023-01-09T18:26:54.345Z,8.39
2023-01-09T18:29:21.339Z,8.52
2023-01-09T18:31:48.870Z,8.47
2023-01-09T18:34:15.360Z,8.34
2023-01-09T18:36:41.990Z,7.88
2023-01-09T18:39:09.540Z,8.23
2023-01-09T18:41:36.428Z,7.79
2023-01-09T18:44:02.994Z,7.98
2023-01-09T18:46:32.704Z,8.04
2023-01-09T18:49:01.616Z,7.88
2023-01-09T18:51:29.102Z,8.25
2023-01-09T18:53:56.084Z,8.35
2023-01-09T18:56:23.320Z,7.96
2023-01-09T18:58:52.594Z,8.40
2023-01-09T19:01:19.521Z,8.14
2023-01-09T19:03:46.160Z,8.73
2023-01-09T19:06:13.137Z,8.35
2023-01-09T19:08:39.950Z,8.59
2023-01-09T19:11:06.672Z,8.53
2023-01-09T19:13:35.196Z,8.65
2023-01-09T19:16:02.557Z,8.48
2023-01-09T19:18:32.318Z,8.19
2023-01-09T19:20:58.806Z,8.15
2023-01-09T19:23:25.295Z,8.43
2023-01-09T19:25:53.051Z,8.34
2023-01-09T19:28:20.766Z,8.49
2023-01-09T19:30:47.507Z,8.18
2023-01-09T19:33:14.219Z,8.54
2023-01-09T19:35:40.779Z,7.95
2023-01-09T19:38:07.793Z,8.22
2023-01-09T19:40:35.759Z,7.91
2023-01-09T19:43:02.211Z,8.48
2023-01-09T19:45:28.822Z,8.51
2023-01-09T19:47:56.351Z,8.21
2023-01-09T19:50:22.958Z,7.85
2023-01-09T19:52:50.849Z,8.10
2023-01-09T19:55:17.703Z,7.85
2023-01-09T19:57:45.086Z,7.80
2023-01-09T20:00:12.867Z,8.24
2023-01-09T20:02:40.579Z,8.25
2023-01-09T20:05:07.767Z,8.37
2023-01-09T20:07:34.873Z,8.76
2023-01-09T20:10:01.435Z,8.49
2023-01-09T20:12:27.940Z,8.66
2023-01-09T20:14:55.038Z,8.41
2023-01-09T20:17:21.656Z,8.55
2023-01-09T20:19:49.240Z,8.51
2023-01-09T20:22:15.746Z,8.60
2023-01-09T20:24:42.290Z,8.44
2023-01-09T20:27:08.978Z,8.32
2023-01-09T20:29:35.525Z,8.12
2023-01-09T20:32:06.222Z,8.31
2023-01-09T20:34:32.698Z,8.45
2023-01-09T20:36:59.448Z,8.42
2023-01-09T20:39:26.292Z,8.67
2023-01-09T20:41:52.845Z,8.59
2023-01-09T20:44:19.418Z,8.18
2023-01-09T20:46:49.399Z,7.78
2023-01-09T20:49:18.009Z,8.06
2023-01-09T20:51:47.116Z,8.12
2023-01-09T20:54:14.613Z,8.28
2023-01-09T20:56:41.337Z,8.08
2023-01-09T20:59:11.987Z,8.13
2023-01-09T21:01:40.192Z,8.22
2023-01-09T21:04:08.629Z,7.69
2023-01-09T21:06:35.916Z,8.48
2023-01-09T21:09:04.035Z,8.23
2023-01-09T21:11:30.527Z,8.13
2023-01-09T21:13:57.447Z,8.27
2023-01-09T21:16:24.679Z,8.15
2023-01-09T21:18:52.562Z,8.37
2023-01-09T21:21:22.243Z,8.29
2023-01-09T21:23:53.585Z,8.49
2023-01-09T21:26:26.544Z,8.37
2023-01-09T21:28:55.273Z,8.50
2023-01-09T21:31:25.261Z,7.86
2023-01-09T21:33:54.361Z,8.34
2023-01-09T21:36:21.799Z,8.65
2023-01-09T21:38:48.539Z,8.56
2023-01-09T21:41:35.304Z,7.99
2023-01-09T21:44:20.486Z,8.25
2023-01-09T21:46:53.358Z,8.54
2023-01-09T21:49:20.726Z,8.51
2023-01-09T21:51:47.518Z,8.30
2023-01-09T21:54:14.200Z,8.10
2023-01-09T21:56:40.736Z,7.72
2023-01-09T21:59:07.417Z,8.46
2023-01-09T22:01:33.941Z,8.15
2023-01-09T22:04:00.649Z,8.63
2023-01-09T22:06:28.403Z,8.66
2023-01-09T22:08:55.900Z,8.48
2023-01-09T22:11:22.713Z,8.32
2023-01-09T22:13:49.766Z,8.33
2023-01-09T22:16:17.046Z,7.83
2023-01-09T22:18:43.935Z,7.93
2023-01-09T22:21:10.801Z,8.02
2023-01-09T22:23:37.258Z,7.85
2023-01-09T22:26:11.369Z,8.12
2023-01-09T22:28:38.350Z,8.18
2023-01-09T22:31:09.536Z,8.30
2023-01-09T22:33:36.649Z,8.64
2023-01-09T22:36:11.476Z,8.63
2023-01-09T22:38:38.300Z,8.45
2023-01-09T22:41:05.365Z,8.13
2023-01-09T22:43:32.108Z,8.33
2023-01-09T22:46:05.527Z,8.38
2023-01-09T22:48:33.716Z,8.35
2023-01-09T22:51:05.908Z,8.23
2023-01-09T22:53:32.526Z,8.39
2023-01-09T22:56:03.884Z,8.56
2023-01-09T22:58:30.984Z,8.31
2023-01-09T23:00:57.812Z,8.45
2023-01-09T23:03:24.637Z,8.12
2023-01-09T23:06:05.341Z,8.33
2023-01-09T23:08:33.600Z,8.35
2023-01-09T23:11:00.609Z,8.55
2023-01-09T23:13:27.506Z,8.47
2023-01-09T23:15:54.484Z,8.37
2023-01-09T23:18:21.396Z,8.43
2023-01-09T23:20:52.849Z,7.97
2023-01-09T23:23:21.021Z,8.61
2023-01-09T23:25:53.358Z,8.43
2023-01-09T23:28:20.281Z,8.36
2023-01-09T23:30:47.434Z,8.53
2023-01-09T23:33:16.454Z,8.23
2023-01-09T23:35:44.152Z,8.05
2023-01-09T23:38:13.658Z,8.38
2023-01-09T23:40:43.998Z,8.49
2023-01-09T23:43:12.118Z,8.09
2023-01-09T23:45:43.494Z,8.44
2023-01-09T23:48:14.545Z,8.57
2023-01-09T23:50:48.592Z,8.02
2023-01-09T23:53:15.255Z,7.81
2023-01-09T23:55:41.785Z,8.08
2023-01-09T23:58:08.645Z,8.19
